Time,TemperatureF,DewpointF,PressureIn,WindDirection,WindDirectionDegrees,WindSpeedMPH,WindSpeedGustMPH,Humidity,HourlyPrecipIn,Conditions,Clouds,dailyrainin,SoftwareType,DateUTC
2013-03-19 07:00:00,37.7,9.1,29.91,WNW,292,7.0,12.0,30,0.00,,---,0.00,VWS V14.01,2013-03-19 13:00:00,
2013-03-19 07:12:00,38.0,9.3,29.95,WNW,293,7.0,7.0,30,0.00,,---,0.00,VWS V14.01,2013-03-19 13:12:00,
2013-03-19 07:17:00,38.5,9.0,29.93,WNW,283,12.0,13.0,29,0.00,,---,0.00,VWS V14.01,2013-03-19 13:17:00,
2013-03-19 07:22:00,38.6,9.1,29.93,WNW,283,8.0,18.0,29,0.00,,---,0.00,VWS V14.01,2013-03-19 13:22:00,
2013-03-19 07:27:00,38.9,8.6,29.93,WNW,296,12.0,13.0,28,0.00,,---,0.00,VWS V14.01,2013-03-19 13:27:00,
2013-03-19 07:32:00,39.1,8.8,29.93,NW,308,12.0,12.0,28,0.00,,---,0.00,VWS V14.01,2013-03-19 13:32:00,
2013-03-19 07:37:00,38.8,9.3,29.93,WNW,294,10.0,14.0,29,0.00,,---,0.00,VWS V14.01,2013-03-19 13:37:00,
2013-03-19 07:42:00,38.9,8.6,29.93,WNW,300,10.0,14.0,28,0.00,,---,0.00,VWS V14.01,2013-03-19 13:42:00,
2013-03-19 07:47:00,39.1,8.8,29.93,NW,317,13.0,18.0,28,0.00,,---,0.00,VWS V14.01,2013-03-19 13:47:00,
2013-03-19 07:53:00,39.6,7.6,29.94,NW,313,14.0,23.0,26,0.00,,---,0.00,VWS V14.01,2013-03-19 13:53:00,
2013-03-19 07:58:00,40.1,8.0,29.94,WNW,291,7.0,14.0,26,0.00,,---,0.00,VWS V14.01,2013-03-19 13:58:00,
2013-03-19 08:03:00,39.9,7.8,29.94,West,267,6.0,6.0,26,0.00,,---,0.00,VWS V14.01,2013-03-19 14:03:00,
2013-03-19 08:08:00,38.4,9.7,29.96,NE,46,6.0,8.0,30,0.00,,---,0.00,VWS V14.01,2013-03-19 14:08:00,
2013-03-19 08:13:00,37.7,9.1,29.96,NE,45,11.0,13.0,30,0.00,,---,0.00,VWS V14.01,2013-03-19 14:13:00,
2013-03-19 08:18:00,37.8,9.2,29.96,East,80,8.0,10.0,30,0.00,,---,0.00,VWS V14.01,2013-03-19 14:18:00,
2013-03-19 08:23:00,38.0,9.3,29.96,NE,45,7.0,9.0,30,0.00,,---,0.00,VWS V14.01,2013-03-19 14:23:00,
2013-03-19 08:28:00,38.1,9.4,29.96,ENE,74,14.0,14.0,30,0.00,,---,0.00,VWS V14.01,2013-03-19 14:28:00,
2013-03-19 08:33:00,38.0,9.3,29.96,East,91,4.0,10.0,30,0.00,,---,0.00,VWS V14.01,2013-03-19 14:33:00,
2013-03-19 08:38:00,38.3,9.6,29.97,NE,55,5.0,8.0,30,0.00,,---,0.00,VWS V14.01,2013-03-19 14:38:00,
2013-03-19 08:43:00,38.6,10.6,29.97,NE,55,4.0,8.0,31,0.00,,---,0.00,VWS V14.01,2013-03-19 14:43:00,
2013-03-19 08:48:00,38.7,10.7,29.97,East,80,1.0,10.0,31,0.00,,---,0.00,VWS V14.01,2013-03-19 14:48:00,
2013-03-19 08:53:00,38.5,10.5,29.97,East,82,0.0,1.0,31,0.00,,---,0.00,VWS V14.01,2013-03-19 14:53:00,
2013-03-19 08:58:00,38.5,10.5,29.96,ESE,117,3.0,10.0,31,0.00,,---,0.00,VWS V14.01,2013-03-19 14:58:00,
2013-03-19 09:03:00,38.8,10.8,29.97,East,84,2.0,9.0,31,0.00,,---,0.00,VWS V14.01,2013-03-19 15:03:00,
2013-03-19 09:08:00,39.6,10.7,29.92,ENE,64,1.0,7.0,30,0.00,,---,0.00,VWS V14.01,2013-03-19 15:08:00,
2013-03-19 09:13:00,39.9,10.2,29.92,West,279,0.0,2.0,29,0.00,,---,0.00,VWS V14.01,2013-03-19 15:13:00,
2013-03-19 09:18:00,39.8,10.1,29.92,West,279,0.0,2.0,29,0.00,,---,0.00,VWS V14.01,2013-03-19 15:18:00,
2013-03-19 09:23:00,39.9,10.2,29.92,ENE,62,1.0,13.0,29,0.00,,---,0.00,VWS V14.01,2013-03-19 15:23:00,
2013-03-19 09:28:00,40.2,9.7,29.92,NE,52,4.0,6.0,28,0.00,,---,0.00,VWS V14.01,2013-03-19 15:28:00,
2013-03-19 09:33:00,40.6,10.1,29.93,NE,42,1.0,5.0,28,0.00,,---,0.00,VWS V14.01,2013-03-19 15:33:00,
2013-03-19 09:38:00,41.1,10.5,29.93,WSW,256,7.0,7.0,28,0.00,,---,0.00,VWS V14.01,2013-03-19 15:38:00,
2013-03-19 09:43:00,41.1,10.5,29.93,WSW,257,5.0,5.0,28,0.00,,---,0.00,VWS V14.01,2013-03-19 15:43:00,
2013-03-19 09:48:00,41.3,9.9,29.93,NW,315,5.0,8.0,27,0.00,,---,0.00,VWS V14.01,2013-03-19 15:48:00,
2013-03-19 09:53:00,41.3,9.9,29.94,NW,304,6.0,7.0,27,0.00,,---,0.00,VWS V14.01,2013-03-19 15:53:00,
2013-03-19 09:58:00,41.2,10.6,29.94,West,265,6.0,16.0,28,0.00,,---,0.00,VWS V14.01,2013-03-19 15:58:00,
2013-03-19 10:03:00,41.3,10.7,29.94,WNW,300,8.0,13.0,28,0.00,,---,0.00,VWS V14.01,2013-03-19 16:03:00,
2013-03-19 10:08:00,41.4,9.9,29.95,NW,308,8.0,10.0,27,0.00,,---,0.00,VWS V14.01,2013-03-19 16:08:00,
2013-03-19 10:13:00,41.6,11.7,29.93,NNW,336,10.0,12.0,29,0.00,,---,0.00,VWS V14.01,2013-03-19 16:13:00,
2013-03-19 10:18:00,41.6,11.7,29.93,WNW,294,8.0,14.0,29,0.00,,---,0.00,VWS V14.01,2013-03-19 16:18:00,
2013-03-19 10:23:00,41.3,10.7,29.94,NNW,336,16.0,19.0,28,0.00,,---,0.00,VWS V14.01,2013-03-19 16:23:00,
2013-03-19 10:28:00,40.8,10.2,29.94,NNW,346,11.0,18.0,28,0.00,,---,0.00,VWS V14.01,2013-03-19 16:28:00,
2013-03-19 10:33:00,40.8,10.2,29.95,NE,41,5.0,14.0,28,0.00,,---,0.00,VWS V14.01,2013-03-19 16:33:00,
2013-03-19 10:38:00,41.3,10.7,29.95,NW,319,2.0,4.0,28,0.00,,---,0.00,VWS V14.01,2013-03-19 16:38:00,
2013-03-19 10:43:00,41.5,10.8,29.93,NNW,336,1.0,11.0,28,0.00,,---,0.00,VWS V14.01,2013-03-19 16:43:00,
2013-03-19 10:48:00,41.5,10.8,29.94,NNW,333,9.0,13.0,28,0.00,,---,0.00,VWS V14.01,2013-03-19 16:48:00,
2013-03-19 10:53:00,41.4,9.9,29.96,North,11,1.0,15.0,27,0.00,,---,0.00,VWS V14.01,2013-03-19 16:53:00,
2013-03-19 10:58:00,41.6,9.3,29.94,NNW,341,0.0,4.0,26,0.00,,---,0.00,VWS V14.01,2013-03-19 16:58:00,
2013-03-19 11:03:00,41.4,9.1,29.96,NNW,333,12.0,12.0,26,0.00,,---,0.00,VWS V14.01,2013-03-19 17:03:00,
2013-03-19 11:08:00,41.5,9.2,29.96,NE,41,6.0,7.0,26,0.00,,---,0.00,VWS V14.01,2013-03-19 17:08:00,
2013-03-19 11:13:00,41.8,8.6,29.94,NNW,338,16.0,16.0,25,0.00,,---,0.00,VWS V14.01,2013-03-19 17:13:00,
2013-03-19 11:18:00,41.3,7.2,29.96,NNW,340,5.0,19.0,24,0.00,,---,0.00,VWS V14.01,2013-03-19 17:18:00,
2013-03-19 11:23:00,41.3,8.1,29.96,NNW,344,2.0,16.0,25,0.00,,---,0.00,VWS V14.01,2013-03-19 17:23:00,
2013-03-19 11:28:00,41.4,8.2,29.96,NNW,341,5.0,13.0,25,0.00,,---,0.00,VWS V14.01,2013-03-19 17:28:00,
2013-03-19 11:33:00,41.4,7.3,29.96,NNW,340,13.0,15.0,24,0.00,,---,0.00,VWS V14.01,2013-03-19 17:33:00,
2013-03-19 11:38:00,41.5,7.4,29.96,NW,326,8.0,18.0,24,0.00,,---,0.00,VWS V14.01,2013-03-19 17:38:00,
2013-03-19 11:43:00,41.5,5.5,29.94,NNW,335,11.0,18.0,22,0.00,,---,0.00,VWS V14.01,2013-03-19 17:43:00,
2013-03-19 11:48:00,41.7,7.6,29.94,NNW,337,13.0,16.0,24,0.00,,---,0.00,VWS V14.01,2013-03-19 17:48:00,
2013-03-19 11:53:00,41.6,5.6,29.95,NW,325,9.0,15.0,22,0.00,,---,0.00,VWS V14.01,2013-03-19 17:53:00,
2013-03-19 11:59:00,41.7,7.6,29.95,NW,306,7.0,9.0,24,0.00,,---,0.00,VWS V14.01,2013-03-19 17:59:00,
2013-03-19 12:04:00,41.8,6.7,29.95,West,271,5.0,9.0,23,0.00,,---,0.00,VWS V14.01,2013-03-19 18:04:00,
2013-03-19 12:09:00,41.8,6.7,29.96,WNW,292,4.0,7.0,23,0.00,,---,0.00,VWS V14.01,2013-03-19 18:09:00,
2013-03-19 12:14:00,41.8,6.7,29.96,WNW,302,1.0,8.0,23,0.00,,---,0.00,VWS V14.01,2013-03-19 18:14:00,
2013-03-19 12:19:00,41.9,6.8,29.96,West,271,4.0,8.0,23,0.00,,---,0.00,VWS V14.01,2013-03-19 18:19:00,
2013-03-19 12:24:00,42.3,7.2,29.96,West,277,6.0,10.0,23,0.00,,---,0.00,VWS V14.01,2013-03-19 18:24:00,
2013-03-19 12:29:00,42.2,6.1,29.96,WNW,283,4.0,7.0,22,0.00,,---,0.00,VWS V14.01,2013-03-19 18:29:00,
2013-03-19 12:34:00,42.4,7.2,29.96,West,274,2.0,5.0,23,0.00,,---,0.00,VWS V14.01,2013-03-19 18:34:00,
2013-03-19 12:39:00,42.7,6.5,29.94,West,272,1.0,8.0,22,0.00,,---,0.00,VWS V14.01,2013-03-19 18:39:00,
2013-03-19 12:44:00,42.5,6.3,29.94,West,273,0.0,8.0,22,0.00,,---,0.00,VWS V14.01,2013-03-19 18:44:00,
2013-03-19 12:49:00,43.0,7.8,29.94,West,272,4.0,5.0,23,0.00,,---,0.00,VWS V14.01,2013-03-19 18:49:00,
2013-03-19 12:54:00,43.8,7.4,29.94,WNW,288,8.0,9.0,22,0.00,,---,0.00,VWS V14.01,2013-03-19 18:54:00,
2013-03-19 12:59:00,43.2,5.9,29.94,WNW,290,1.0,3.0,21,0.00,,---,0.00,VWS V14.01,2013-03-19 18:59:00,
2013-03-19 13:04:00,43.3,6.0,29.94,WNW,288,0.0,5.0,21,0.00,,---,0.00,VWS V14.01,2013-03-19 19:04:00,
2013-03-19 13:09:00,43.7,7.4,29.94,WNW,289,0.0,2.0,22,0.00,,---,0.00,VWS V14.01,2013-03-19 19:09:00,
2013-03-19 13:14:00,44.1,5.6,29.94,WNW,290,6.0,6.0,20,0.00,,---,0.00,VWS V14.01,2013-03-19 19:14:00,
2013-03-19 13:19:00,43.9,5.4,29.94,West,273,4.0,11.0,20,0.00,,---,0.00,VWS V14.01,2013-03-19 19:19:00,
2013-03-19 13:24:00,44.1,5.6,29.94,West,273,0.0,2.0,20,0.00,,---,0.00,VWS V14.01,2013-03-19 19:24:00,
2013-03-19 13:29:00,44.3,5.8,29.94,West,273,6.0,7.0,20,0.00,,---,0.00,VWS V14.01,2013-03-19 19:29:00,
2013-03-19 13:34:00,44.1,5.6,29.94,WNW,285,3.0,10.0,20,0.00,,---,0.00,VWS V14.01,2013-03-19 19:34:00,
2013-03-19 13:39:00,43.7,5.3,29.94,WNW,284,0.0,4.0,20,0.00,,---,0.00,VWS V14.01,2013-03-19 19:39:00,
2013-03-19 13:44:00,44.3,5.8,29.94,WNW,285,1.0,6.0,20,0.00,,---,0.00,VWS V14.01,2013-03-19 19:44:00,
2013-03-19 13:49:00,45.0,6.4,29.92,WNW,285,0.0,5.0,20,0.00,,---,0.00,VWS V14.01,2013-03-19 19:49:00,
2013-03-19 13:54:00,45.4,6.7,29.92,WNW,284,3.0,10.0,20,0.00,,---,0.00,VWS V14.01,2013-03-19 19:54:00,
2013-03-19 13:59:00,44.9,6.3,29.92,West,268,5.0,13.0,20,0.00,,---,0.00,VWS V14.01,2013-03-19 19:59:00,
2013-03-19 14:04:00,44.5,5.9,29.91,West,267,5.0,6.0,20,0.00,,---,0.00,VWS V14.01,2013-03-19 20:04:00,
2013-03-19 14:09:00,44.6,4.9,29.92,WSW,256,0.0,8.0,19,0.00,,---,0.00,VWS V14.01,2013-03-19 20:09:00,
2013-03-19 14:14:00,45.3,6.6,29.91,WSW,257,1.0,2.0,20,0.00,,---,0.00,VWS V14.01,2013-03-19 20:14:00,
2013-03-19 14:19:00,45.3,5.5,29.92,WSW,257,0.0,0.0,19,0.00,,---,0.00,VWS V14.01,2013-03-19 20:19:00,
2013-03-19 14:24:00,46.0,7.2,29.91,WSW,256,8.0,9.0,20,0.00,,---,0.00,VWS V14.01,2013-03-19 20:24:00,
2013-03-19 14:29:00,46.2,7.4,29.91,NW,326,6.0,10.0,20,0.00,,---,0.00,VWS V14.01,2013-03-19 20:29:00,
2013-03-19 14:34:00,45.4,5.6,29.91,West,275,7.0,10.0,19,0.00,,---,0.00,VWS V14.01,2013-03-19 20:34:00,
2013-03-19 14:39:00,45.1,5.3,29.91,West,275,1.0,6.0,19,0.00,,---,0.00,VWS V14.01,2013-03-19 20:39:00,
2013-03-19 14:44:00,45.5,5.7,29.91,West,275,2.0,2.0,19,0.00,,---,0.00,VWS V14.01,2013-03-19 20:44:00,
2013-03-19 14:49:00,46.1,6.2,29.90,West,275,0.0,6.0,19,0.00,,---,0.00,VWS V14.01,2013-03-19 20:49:00,
2013-03-19 14:54:00,46.8,6.7,29.89,West,275,5.0,7.0,19,0.00,,---,0.00,VWS V14.01,2013-03-19 20:54:00,
2013-03-19 14:59:00,46.6,6.6,29.89,West,275,5.0,6.0,19,0.00,,---,0.00,VWS V14.01,2013-03-19 20:59:00,
2013-03-19 15:04:00,46.3,6.3,29.90,WNW,294,0.0,7.0,19,0.00,,---,0.00,VWS V14.01,2013-03-19 21:04:00,
2013-03-19 15:09:00,46.4,6.4,29.90,WNW,294,4.0,7.0,19,0.00,,---,0.00,VWS V14.01,2013-03-19 21:09:00,
2013-03-19 15:14:00,46.6,7.7,29.89,WSW,250,12.0,12.0,20,0.00,,---,0.00,VWS V14.01,2013-03-19 21:14:00,
2013-03-19 15:19:00,46.6,6.6,29.88,West,263,6.0,13.0,19,0.00,,---,0.00,VWS V14.01,2013-03-19 21:19:00,
2013-03-19 15:24:00,46.7,6.6,29.88,West,263,3.0,7.0,19,0.00,,---,0.00,VWS V14.01,2013-03-19 21:24:00,
2013-03-19 15:29:00,47.1,7.0,29.88,WNW,283,6.0,10.0,19,0.00,,---,0.00,VWS V14.01,2013-03-19 21:29:00,
2013-03-19 15:34:00,46.4,7.5,29.90,NW,314,3.0,9.0,20,0.00,,---,0.00,VWS V14.01,2013-03-19 21:34:00,
2013-03-19 15:39:00,47.0,6.9,29.88,NW,314,1.0,6.0,19,0.00,,---,0.00,VWS V14.01,2013-03-19 21:39:00,
2013-03-19 15:44:00,46.8,6.7,29.89,NW,314,3.0,6.0,19,0.00,,---,0.00,VWS V14.01,2013-03-19 21:44:00,
2013-03-19 15:49:00,46.8,6.7,29.89,NW,314,1.0,3.0,19,0.00,,---,0.00,VWS V14.01,2013-03-19 21:49:00,
2013-03-19 15:55:00,47.2,8.2,29.88,NW,314,1.0,5.0,20,0.00,,---,0.00,VWS V14.01,2013-03-19 21:55:00,
2013-03-19 15:59:00,47.6,8.5,29.89,NW,313,7.0,7.0,20,0.00,,---,0.00,VWS V14.01,2013-03-19 21:59:00,
2013-03-19 16:04:00,47.6,9.6,29.88,WNW,295,8.0,13.0,21,0.00,,---,0.00,VWS V14.01,2013-03-19 22:04:00,
2013-03-19 16:10:00,47.2,11.3,29.89,NNW,346,5.0,13.0,23,0.00,,---,0.00,VWS V14.01,2013-03-19 22:10:00,
2013-03-19 16:15:00,47.2,12.3,29.89,NE,50,6.0,12.0,24,0.00,,---,0.00,VWS V14.01,2013-03-19 22:15:00,
2013-03-19 16:20:00,46.9,12.9,29.89,NE,39,11.0,12.0,25,0.00,,---,0.00,VWS V14.01,2013-03-19 22:20:00,
2013-03-19 16:25:00,46.3,10.6,29.91,NE,38,11.0,14.0,23,0.00,,---,0.00,VWS V14.01,2013-03-19 22:25:00,
2013-03-19 16:30:00,46.1,11.3,29.91,NE,53,5.0,12.0,24,0.00,,---,0.00,VWS V14.01,2013-03-19 22:30:00,
2013-03-19 16:35:00,46.1,12.2,29.91,ENE,73,5.0,9.0,25,0.00,,---,0.00,VWS V14.01,2013-03-19 22:35:00,
2013-03-19 16:40:00,45.6,11.8,29.92,ENE,61,2.0,9.0,25,0.00,,---,0.00,VWS V14.01,2013-03-19 22:40:00,
2013-03-19 16:45:00,45.4,12.5,29.92,NE,46,4.0,12.0,26,0.00,,---,0.00,VWS V14.01,2013-03-19 22:45:00,
2013-03-19 16:50:00,44.9,13.0,29.92,NE,48,5.0,12.0,27,0.00,,---,0.00,VWS V14.01,2013-03-19 22:50:00,
2013-03-19 16:55:00,44.6,12.7,29.92,ENE,65,5.0,10.0,27,0.00,,---,0.00,VWS V14.01,2013-03-19 22:55:00,
2013-03-19 17:00:00,44.4,12.5,29.93,ENE,57,5.0,11.0,27,0.00,,---,0.00,VWS V14.01,2013-03-19 23:00:00,
2013-03-19 17:05:00,44.0,13.0,29.94,East,90,6.0,9.0,28,0.00,,---,0.00,VWS V14.01,2013-03-19 23:05:00,
2013-03-19 17:10:00,43.7,12.8,29.95,ENE,65,3.0,11.0,28,0.00,,---,0.00,VWS V14.01,2013-03-19 23:10:00,
2013-03-19 17:15:00,43.6,12.7,29.95,East,81,7.0,11.0,28,0.00,,---,0.00,VWS V14.01,2013-03-19 23:15:00,
2013-03-19 17:20:00,43.4,12.5,29.95,NE,51,5.0,12.0,28,0.00,,---,0.00,VWS V14.01,2013-03-19 23:20:00,
2013-03-19 17:25:00,43.1,12.2,29.97,ENE,60,7.0,14.0,28,0.00,,---,0.00,VWS V14.01,2013-03-19 23:25:00,
2013-03-19 17:30:00,43.1,12.2,29.98,ENE,57,7.0,11.0,28,0.00,,---,0.00,VWS V14.01,2013-03-19 23:30:00,
2013-03-19 17:35:00,43.0,12.1,29.98,ENE,60,6.0,12.0,28,0.00,,---,0.00,VWS V14.01,2013-03-19 23:35:00,
2013-03-19 17:40:00,43.0,12.9,29.98,NE,46,0.0,7.0,29,0.00,,---,0.00,VWS V14.01,2013-03-19 23:40:00,
2013-03-19 17:45:00,43.1,12.2,29.98,NE,46,2.0,6.0,28,0.00,,---,0.00,VWS V14.01,2013-03-19 23:45:00,
2013-03-19 17:50:00,43.0,12.9,29.98,NE,46,0.0,6.0,29,0.00,,---,0.00,VWS V14.01,2013-03-19 23:50:00,
2013-03-19 17:55:00,42.9,12.1,29.99,NE,46,1.0,5.0,28,0.00,,---,0.00,VWS V14.01,2013-03-19 23:55:00,
2013-03-19 18:00:00,42.8,12.8,29.99,NE,45,4.0,6.0,29,0.00,,---,0.00,VWS V14.01,2013-03-20 00:00:00,
2013-03-19 18:05:00,42.3,12.3,30.00,ENE,58,7.0,11.0,29,0.00,,---,0.00,VWS V14.01,2013-03-20 00:05:00,
2013-03-19 18:10:00,41.6,12.5,29.99,NE,56,5.0,10.0,30,0.00,,---,0.00,VWS V14.01,2013-03-20 00:10:00,
2013-03-19 18:15:00,41.0,12.7,30.01,NE,49,7.0,12.0,31,0.00,,---,0.00,VWS V14.01,2013-03-20 00:15:00,
2013-03-19 18:20:00,40.8,12.5,30.02,ENE,63,6.0,11.0,31,0.00,,---,0.00,VWS V14.01,2013-03-20 00:20:00,
2013-03-19 18:25:00,40.6,12.4,30.02,NE,55,6.0,11.0,31,0.00,,---,0.00,VWS V14.01,2013-03-20 00:25:00,
2013-03-19 18:30:00,40.4,12.2,30.02,NE,46,4.0,12.0,31,0.00,,---,0.00,VWS V14.01,2013-03-20 00:30:00,
2013-03-19 18:35:00,40.2,12.0,30.03,NE,52,6.0,9.0,31,0.00,,---,0.00,VWS V14.01,2013-03-20 00:35:00,
2013-03-19 18:40:00,40.0,11.8,30.03,NE,44,6.0,8.0,31,0.00,,---,0.00,VWS V14.01,2013-03-20 00:40:00,
2013-03-19 18:45:00,39.7,12.3,30.03,ENE,59,2.0,8.0,32,0.00,,---,0.00,VWS V14.01,2013-03-20 00:45:00,
2013-03-19 18:50:00,39.2,12.5,30.06,NE,52,5.0,7.0,33,0.00,,---,0.00,VWS V14.01,2013-03-20 00:50:00,
2013-03-19 18:56:00,38.8,12.2,30.06,NE,56,1.0,7.0,33,0.00,,---,0.00,VWS V14.01,2013-03-20 00:56:00,
2013-03-19 19:01:00,38.3,12.4,30.06,NE,56,0.0,4.0,34,0.00,,---,0.00,VWS V14.01,2013-03-20 01:01:00,
2013-03-19 19:06:00,37.9,12.7,30.06,NE,56,2.0,3.0,35,0.00,,---,0.00,VWS V14.01,2013-03-20 01:06:00,
2013-03-19 19:11:00,37.5,13.0,30.06,NE,56,0.0,4.0,36,0.00,,---,0.00,VWS V14.01,2013-03-20 01:11:00,
2013-03-19 19:16:00,37.1,12.6,30.07,NE,56,0.0,1.0,36,0.00,,---,0.00,VWS V14.01,2013-03-20 01:16:00,
2013-03-19 19:21:00,36.5,12.7,30.07,NE,56,0.0,2.0,37,0.00,,---,0.00,VWS V14.01,2013-03-20 01:21:00,
2013-03-19 19:26:00,35.6,11.9,30.09,ENE,58,4.0,5.0,37,0.00,,---,0.00,VWS V14.01,2013-03-20 01:26:00,
2013-03-19 19:31:00,34.6,12.2,30.10,ENE,57,4.0,5.0,39,0.00,,---,0.00,VWS V14.01,2013-03-20 01:31:00,
2013-03-19 19:36:00,34.4,11.4,30.12,NE,53,5.0,8.0,38,0.00,,---,0.00,VWS V14.01,2013-03-20 01:36:00,
2013-03-19 19:41:00,34.4,11.4,30.12,NE,51,3.0,8.0,38,0.00,,---,0.00,VWS V14.01,2013-03-20 01:41:00,
2013-03-19 19:46:00,34.2,11.8,30.13,NE,51,2.0,5.0,39,0.00,,---,0.00,VWS V14.01,2013-03-20 01:46:00,
2013-03-19 19:51:00,33.7,11.4,30.14,NE,51,1.0,5.0,39,0.00,,---,0.00,VWS V14.01,2013-03-20 01:51:00,
2013-03-19 19:56:00,33.2,11.5,30.14,NE,51,2.0,2.0,40,0.00,,---,0.00,VWS V14.01,2013-03-20 01:56:00,
2013-03-19 20:01:00,33.3,10.4,30.14,NE,51,0.0,5.0,38,0.00,,---,0.00,VWS V14.01,2013-03-20 02:01:00,
2013-03-19 20:06:00,33.6,10.7,30.14,NE,51,0.0,5.0,38,0.00,,---,0.00,VWS V14.01,2013-03-20 02:06:00,
2013-03-19 20:11:00,33.2,11.5,30.15,NE,43,3.0,5.0,40,0.00,,---,0.00,VWS V14.01,2013-03-20 02:11:00,
2013-03-19 20:16:00,32.5,11.4,30.15,NE,41,1.0,5.0,41,0.00,,---,0.00,VWS V14.01,2013-03-20 02:16:00,
2013-03-19 20:21:00,32.0,12.1,30.17,NE,42,0.0,3.0,43,0.00,,---,0.00,VWS V14.01,2013-03-20 02:21:00,
2013-03-19 20:26:00,31.8,11.3,30.17,NE,41,0.0,2.0,42,0.00,,---,0.00,VWS V14.01,2013-03-20 02:26:00,
2013-03-19 20:31:00,31.9,11.4,30.17,NE,42,0.0,0.0,42,0.00,,---,0.00,VWS V14.01,2013-03-20 02:31:00,
2013-03-19 20:36:00,32.0,11.0,30.18,NE,41,0.0,2.0,41,0.00,,---,0.00,VWS V14.01,2013-03-20 02:36:00,
2013-03-19 20:41:00,32.0,11.5,30.18,NE,41,0.0,2.0,42,0.00,,---,0.00,VWS V14.01,2013-03-20 02:41:00,
2013-03-19 20:46:00,31.8,11.3,30.19,NE,41,0.0,1.0,42,0.00,,---,0.00,VWS V14.01,2013-03-20 02:46:00,
2013-03-19 20:51:00,31.5,11.6,30.19,NE,42,0.0,0.0,43,0.00,,---,0.00,VWS V14.01,2013-03-20 02:51:00,
2013-03-19 20:56:00,31.3,11.4,30.19,NE,41,0.0,1.0,43,0.00,,---,0.00,VWS V14.01,2013-03-20 02:56:00,
2013-03-19 21:01:00,31.1,10.7,30.20,NE,42,0.0,2.0,42,0.00,,---,0.00,VWS V14.01,2013-03-20 03:01:00,
2013-03-19 21:06:00,31.1,10.7,30.20,NE,42,0.0,3.0,42,0.00,,---,0.00,VWS V14.01,2013-03-20 03:06:00,
2013-03-19 21:11:00,31.0,10.6,30.18,NE,41,0.0,1.0,42,0.00,,---,0.00,VWS V14.01,2013-03-20 03:11:00,
2013-03-19 21:16:00,30.7,10.3,30.18,NE,42,0.0,0.0,42,0.00,,---,0.00,VWS V14.01,2013-03-20 03:16:00,
2013-03-19 21:21:00,30.6,10.8,30.19,NE,42,0.0,0.0,43,0.00,,---,0.00,VWS V14.01,2013-03-20 03:21:00,
2013-03-19 21:26:00,30.5,11.2,30.19,NE,41,0.0,1.0,44,0.00,,---,0.00,VWS V14.01,2013-03-20 03:26:00,